sensor_id;sensor_type;location;lat;lon;timestamp;temperature;humidity
20929;DHT22;21895;47.072;15.132;2022-10-17T00:02:11;9.60;99.90
20929;DHT22;21895;47.072;15.132;2022-10-17T00:04:37;9.70;99.90
20929;DHT22;21895;47.072;15.132;2022-10-17T00:07:04;9.60;99.90
20929;DHT22;21895;47.072;15.132;2022-10-17T00:09:31;9.60;99.90
20929;DHT22;21895;47.072;15.132;2022-10-17T00:11:57;9.50;99.90
20929;DHT22;21895;47.072;15.132;2022-10-17T00:14:24;9.40;99.90
20929;DHT22;21895;47.072;15.132;2022-10-17T00:16:50;9.40;99.90
20929;DHT22;21895;47.072;15.132;2022-10-17T00:19:17;9.50;99.90
20929;DHT22;21895;47.072;15.132;2022-10-17T00:21:43;9.60;99.90
20929;DHT22;21895;47.072;15.132;2022-10-17T00:24:09;9.70;99.90
20929;DHT22;21895;47.072;15.132;2022-10-17T00:26:36;9.70;99.90
20929;DHT22;21895;47.072;15.132;2022-10-17T00:29:02;9.50;99.90
20929;DHT22;21895;47.072;15.132;2022-10-17T00:31:29;9.40;99.90
20929;DHT22;21895;47.072;15.132;2022-10-17T00:33:55;9.40;99.90
20929;DHT22;21895;47.072;15.132;2022-10-17T00:36:25;9.50;99.90
20929;DHT22;21895;47.072;15.132;2022-10-17T00:38:56;9.60;99.90
20929;DHT22;21895;47.072;15.132;2022-10-17T00:41:27;9.60;99.90
20929;DHT22;21895;47.072;15.132;2022-10-17T00:47:21;9.50;99.90
20929;DHT22;21895;47.072;15.132;2022-10-17T00:49:48;9.40;99.90
20929;DHT22;21895;47.072;15.132;2022-10-17T00:52:26;9.50;99.90
20929;DHT22;21895;47.072;15.132;2022-10-17T00:55:19;9.40;99.90
20929;DHT22;21895;47.072;15.132;2022-10-17T00:57:55;9.50;99.90
20929;DHT22;21895;47.072;15.132;2022-10-17T01:00:23;9.20;99.90
20929;DHT22;21895;47.072;15.132;2022-10-17T01:02:50;9.40;99.90
20929;DHT22;21895;47.072;15.132;2022-10-17T01:05:17;9.20;99.90
20929;DHT22;21895;47.072;15.132;2022-10-17T01:07:48;9.30;99.90
20929;DHT22;21895;47.072;15.132;2022-10-17T01:10:16;9.20;99.90
20929;DHT22;21895;47.072;15.132;2022-10-17T01:13:05;9.30;99.90
20929;DHT22;21895;47.072;15.132;2022-10-17T01:16:04;9.30;99.90
20929;DHT22;21895;47.072;15.132;2022-10-17T01:33:20;9.20;99.90
20929;DHT22;21895;47.072;15.132;2022-10-17T01:37:24;9.00;99.90
20929;DHT22;21895;47.072;15.132;2022-10-17T01:40:15;9.20;99.90
20929;DHT22;21895;47.072;15.132;2022-10-17T01:43:06;9.30;99.90
20929;DHT22;21895;47.072;15.132;2022-10-17T01:48:37;9.40;99.90
20929;DHT22;21895;47.072;15.132;2022-10-17T01:51:12;9.40;99.90
20929;DHT22;21895;47.072;15.132;2022-10-17T01:53:53;9.30;99.90
20929;DHT22;21895;47.072;15.132;2022-10-17T01:56:28;9.40;99.90
20929;DHT22;21895;47.072;15.132;2022-10-17T01:59:06;9.30;99.90
20929;DHT22;21895;47.072;15.132;2022-10-17T02:01:41;9.20;99.90
20929;DHT22;21895;47.072;15.132;2022-10-17T02:04:10;9.30;99.90
20929;DHT22;21895;47.072;15.132;2022-10-17T02:06:37;9.20;99.90
20929;DHT22;21895;47.072;15.132;2022-10-17T02:09:17;9.20;99.90
20929;DHT22;21895;47.072;15.132;2022-10-17T02:12:48;9.20;99.90
20929;DHT22;21895;47.072;15.132;2022-10-17T02:17:50;9.20;99.90
20929;DHT22;21895;47.072;15.132;2022-10-17T02:21:10;9.00;99.90
20929;DHT22;21895;47.072;15.132;2022-10-17T02:24:51;9.00;99.90
20929;DHT22;21895;47.072;15.132;2022-10-17T02:29:09;8.90;99.90
20929;DHT22;21895;47.072;15.132;2022-10-17T02:31:46;8.90;99.90
20929;DHT22;21895;47.072;15.132;2022-10-17T02:34:26;9.00;99.90
20929;DHT22;21895;47.072;15.132;2022-10-17T02:36:59;9.00;99.90
20929;DHT22;21895;47.072;15.132;2022-10-17T02:39:30;8.90;99.90
20929;DHT22;21895;47.072;15.132;2022-10-17T02:42:02;8.80;99.90
20929;DHT22;21895;47.072;15.132;2022-10-17T02:44:35;9.00;99.90
20929;DHT22;21895;47.072;15.132;2022-10-17T02:49:03;9.00;99.90
20929;DHT22;21895;47.072;15.132;2022-10-17T02:52:01;8.90;99.90
20929;DHT22;21895;47.072;15.132;2022-10-17T02:54:51;8.80;99.90
20929;DHT22;21895;47.072;15.132;2022-10-17T02:58:12;8.70;99.90
20929;DHT22;21895;47.072;15.132;2022-10-17T03:00:53;8.60;99.90
20929;DHT22;21895;47.072;15.132;2022-10-17T03:03:28;8.70;99.90
20929;DHT22;21895;47.072;15.132;2022-10-17T03:05:55;8.60;99.90
20929;DHT22;21895;47.072;15.132;2022-10-17T03:08:23;8.70;99.90
20929;DHT22;21895;47.072;15.132;2022-10-17T03:10:50;8.90;99.90
20929;DHT22;21895;47.072;15.132;2022-10-17T03:13:17;8.80;99.90
20929;DHT22;21895;47.072;15.132;2022-10-17T03:15:44;8.90;99.90
20929;DHT22;21895;47.072;15.132;2022-10-17T03:18:11;8.90;99.90
20929;DHT22;21895;47.072;15.132;2022-10-17T03:20:37;9.00;99.90
20929;DHT22;21895;47.072;15.132;2022-10-17T03:23:04;8.90;99.90
20929;DHT22;21895;47.072;15.132;2022-10-17T03:25:31;8.90;99.90
20929;DHT22;21895;47.072;15.132;2022-10-17T03:27:58;8.80;99.90
20929;DHT22;21895;47.072;15.132;2022-10-17T03:30:27;8.80;99.90
20929;DHT22;21895;47.072;15.132;2022-10-17T03:32:54;8.80;99.90
20929;DHT22;21895;47.072;15.132;2022-10-17T03:35:23;8.70;99.90
20929;DHT22;21895;47.072;15.132;2022-10-17T03:37:50;8.70;99.90
20929;DHT22;21895;47.072;15.132;2022-10-17T03:40:16;8.70;99.90
20929;DHT22;21895;47.072;15.132;2022-10-17T03:42:43;8.60;99.90
20929;DHT22;21895;47.072;15.132;2022-10-17T03:45:10;8.60;99.90
20929;DHT22;21895;47.072;15.132;2022-10-17T03:47:36;8.50;99.90
20929;DHT22;21895;47.072;15.132;2022-10-17T03:50:03;8.50;99.90
20929;DHT22;21895;47.072;15.132;2022-10-17T03:52:30;8.50;99.90
20929;DHT22;21895;47.072;15.132;2022-10-17T03:54:56;8.50;99.90
20929;DHT22;21895;47.072;15.132;2022-10-17T03:57:23;8.50;99.90
20929;DHT22;21895;47.072;15.132;2022-10-17T03:59:49;8.40;99.90
20929;DHT22;21895;47.072;15.132;2022-10-17T04:02:17;8.30;99.90
20929;DHT22;21895;47.072;15.132;2022-10-17T04:04:43;8.40;99.90
20929;DHT22;21895;47.072;15.132;2022-10-17T04:07:10;8.30;99.90
20929;DHT22;21895;47.072;15.132;2022-10-17T04:09:36;8.20;99.90
20929;DHT22;21895;47.072;15.132;2022-10-17T04:12:03;8.20;99.90
20929;DHT22;21895;47.072;15.132;2022-10-17T04:14:30;8.30;99.90
20929;DHT22;21895;47.072;15.132;2022-10-17T04:16:56;8.30;99.90
20929;DHT22;21895;47.072;15.132;2022-10-17T04:19:24;8.30;99.90
20929;DHT22;21895;47.072;15.132;2022-10-17T04:21:50;8.30;99.90
20929;DHT22;21895;47.072;15.132;2022-10-17T04:24:17;8.30;99.90
20929;DHT22;21895;47.072;15.132;2022-10-17T04:26:44;8.20;99.90
20929;DHT22;21895;47.072;15.132;2022-10-17T04:29:10;8.30;99.90
20929;DHT22;21895;47.072;15.132;2022-10-17T04:31:37;8.40;99.90
20929;DHT22;21895;47.072;15.132;2022-10-17T04:34:03;8.40;99.90
20929;DHT22;21895;47.072;15.132;2022-10-17T04:36:30;8.40;99.90
20929;DHT22;21895;47.072;15.132;2022-10-17T04:38:57;8.40;99.90
20929;DHT22;21895;47.072;15.132;2022-10-17T04:41:26;8.40;99.90
20929;DHT22;21895;47.072;15.132;2022-10-17T04:43:53;8.50;99.90
20929;DHT22;21895;47.072;15.132;2022-10-17T04:46:19;8.60;99.90
20929;DHT22;21895;47.072;15.132;2022-10-17T04:48:46;8.50;99.90
20929;DHT22;21895;47.072;15.132;2022-10-17T04:51:15;8.60;99.90
20929;DHT22;21895;47.072;15.132;2022-10-17T04:53:46;8.50;99.90
20929;DHT22;21895;47.072;15.132;2022-10-17T04:56:18;8.60;99.90
20929;DHT22;21895;47.072;15.132;2022-10-17T04:58:47;8.40;99.90
20929;DHT22;21895;47.072;15.132;2022-10-17T05:01:16;8.40;99.90
20929;DHT22;21895;47.072;15.132;2022-10-17T05:03:47;8.40;99.90
20929;DHT22;21895;47.072;15.132;2022-10-17T05:06:20;8.50;99.90
20929;DHT22;21895;47.072;15.132;2022-10-17T05:08:48;8.30;99.90
20929;DHT22;21895;47.072;15.132;2022-10-17T05:11:23;8.40;99.90
20929;DHT22;21895;47.072;15.132;2022-10-17T05:14:00;8.40;99.90
20929;DHT22;21895;47.072;15.132;2022-10-17T05:16:28;8.50;99.90
20929;DHT22;21895;47.072;15.132;2022-10-17T05:18:57;8.50;99.90
20929;DHT22;21895;47.072;15.132;2022-10-17T05:21:25;8.50;99.90
20929;DHT22;21895;47.072;15.132;2022-10-17T05:23:52;8.50;99.90
20929;DHT22;21895;47.072;15.132;2022-10-17T05:26:20;8.50;99.90
20929;DHT22;21895;47.072;15.132;2022-10-17T05:28:48;8.40;99.90
20929;DHT22;21895;47.072;15.132;2022-10-17T05:31:17;8.40;99.90
20929;DHT22;21895;47.072;15.132;2022-10-17T05:33:44;8.40;99.90
20929;DHT22;21895;47.072;15.132;2022-10-17T05:36:10;8.40;99.90
20929;DHT22;21895;47.072;15.132;2022-10-17T05:38:37;8.40;99.90
20929;DHT22;21895;47.072;15.132;2022-10-17T05:41:04;8.50;99.90
20929;DHT22;21895;47.072;15.132;2022-10-17T05:43:32;8.40;99.90
20929;DHT22;21895;47.072;15.132;2022-10-17T05:46:03;8.40;99.90
20929;DHT22;21895;47.072;15.132;2022-10-17T05:48:31;8.40;99.90
20929;DHT22;21895;47.072;15.132;2022-10-17T05:50:59;8.50;99.90
20929;DHT22;21895;47.072;15.132;2022-10-17T05:53:31;8.60;99.90
20929;DHT22;21895;47.072;15.132;2022-10-17T05:56:01;8.60;99.90
20929;DHT22;21895;47.072;15.132;2022-10-17T05:58:29;8.70;99.90
20929;DHT22;21895;47.072;15.132;2022-10-17T06:01:15;8.70;99.90
20929;DHT22;21895;47.072;15.132;2022-10-17T06:03:42;8.80;99.90
20929;DHT22;21895;47.072;15.132;2022-10-17T06:06:11;8.80;99.90
20929;DHT22;21895;47.072;15.132;2022-10-17T06:08:39;8.90;99.90
20929;DHT22;21895;47.072;15.132;2022-10-17T06:11:05;8.90;99.90
20929;DHT22;21895;47.072;15.132;2022-10-17T06:13:37;9.00;99.90
20929;DHT22;21895;47.072;15.132;2022-10-17T06:16:05;9.20;99.90
20929;DHT22;21895;47.072;15.132;2022-10-17T06:18:32;9.30;99.90
20929;DHT22;21895;47.072;15.132;2022-10-17T06:21:03;9.40;99.90
20929;DHT22;21895;47.072;15.132;2022-10-17T06:23:34;9.50;99.90
20929;DHT22;21895;47.072;15.132;2022-10-17T06:26:03;9.70;99.90
20929;DHT22;21895;47.072;15.132;2022-10-17T06:28:31;9.80;99.90
20929;DHT22;21895;47.072;15.132;2022-10-17T06:30:57;9.80;99.90
20929;DHT22;21895;47.072;15.132;2022-10-17T06:33:24;9.90;99.90
20929;DHT22;21895;47.072;15.132;2022-10-17T06:35:54;10.00;99.90
20929;DHT22;21895;47.072;15.132;2022-10-17T06:38:22;10.20;99.90
20929;DHT22;21895;47.072;15.132;2022-10-17T06:40:48;10.30;99.90
20929;DHT22;21895;47.072;15.132;2022-10-17T06:43:15;10.40;99.90
20929;DHT22;21895;47.072;15.132;2022-10-17T06:45:41;10.50;99.90
20929;DHT22;21895;47.072;15.132;2022-10-17T06:48:10;10.60;99.90
20929;DHT22;21895;47.072;15.132;2022-10-17T06:50:37;10.70;99.90
20929;DHT22;21895;47.072;15.132;2022-10-17T06:53:03;10.90;99.90
20929;DHT22;21895;47.072;15.132;2022-10-17T06:55:31;11.00;99.90
20929;DHT22;21895;47.072;15.132;2022-10-17T06:57:57;11.10;99.90
20929;DHT22;21895;47.072;15.132;2022-10-17T07:00:24;11.10;99.90
20929;DHT22;21895;47.072;15.132;2022-10-17T07:02:51;11.20;99.90
20929;DHT22;21895;47.072;15.132;2022-10-17T07:05:18;11.20;99.90
20929;DHT22;21895;47.072;15.132;2022-10-17T07:07:45;11.30;99.90
20929;DHT22;21895;47.072;15.132;2022-10-17T07:10:15;11.40;99.90
20929;DHT22;21895;47.072;15.132;2022-10-17T07:12:41;11.60;99.90
20929;DHT22;21895;47.072;15.132;2022-10-17T07:15:10;11.60;99.90
20929;DHT22;21895;47.072;15.132;2022-10-17T07:17:37;11.80;99.90
20929;DHT22;21895;47.072;15.132;2022-10-17T07:20:04;11.90;99.90
20929;DHT22;21895;47.072;15.132;2022-10-17T07:22:31;12.00;99.90
20929;DHT22;21895;47.072;15.132;2022-10-17T07:24:57;12.00;99.90
20929;DHT22;21895;47.072;15.132;2022-10-17T07:27:24;12.10;99.90
20929;DHT22;21895;47.072;15.132;2022-10-17T07:29:50;12.20;99.90
20929;DHT22;21895;47.072;15.132;2022-10-17T07:32:17;12.40;99.90
20929;DHT22;21895;47.072;15.132;2022-10-17T07:34:44;12.50;99.90
20929;DHT22;21895;47.072;15.132;2022-10-17T07:37:10;12.70;99.90
20929;DHT22;21895;47.072;15.132;2022-10-17T07:39:37;12.80;99.90
20929;DHT22;21895;47.072;15.132;2022-10-17T07:42:05;12.90;99.90
20929;DHT22;21895;47.072;15.132;2022-10-17T07:44:32;13.10;99.90
20929;DHT22;21895;47.072;15.132;2022-10-17T07:47:00;13.20;99.90
20929;DHT22;21895;47.072;15.132;2022-10-17T07:49:27;13.30;99.90
20929;DHT22;21895;47.072;15.132;2022-10-17T07:51:53;13.50;99.90
20929;DHT22;21895;47.072;15.132;2022-10-17T07:54:20;13.60;99.90
20929;DHT22;21895;47.072;15.132;2022-10-17T07:56:46;13.70;99.90
20929;DHT22;21895;47.072;15.132;2022-10-17T07:59:18;13.70;99.90
20929;DHT22;21895;47.072;15.132;2022-10-17T08:01:45;13.80;99.90
20929;DHT22;21895;47.072;15.132;2022-10-17T08:04:11;14.00;99.90
20929;DHT22;21895;47.072;15.132;2022-10-17T08:06:41;14.10;99.90
20929;DHT22;21895;47.072;15.132;2022-10-17T08:09:08;14.20;99.90
20929;DHT22;21895;47.072;15.132;2022-10-17T08:11:34;14.40;99.90
20929;DHT22;21895;47.072;15.132;2022-10-17T08:14:02;14.40;99.90
20929;DHT22;21895;47.072;15.132;2022-10-17T08:16:29;14.50;99.90
20929;DHT22;21895;47.072;15.132;2022-10-17T08:18:55;14.60;99.90
20929;DHT22;21895;47.072;15.132;2022-10-17T08:21:22;14.80;99.90
20929;DHT22;21895;47.072;15.132;2022-10-17T08:23:48;15.00;99.90
20929;DHT22;21895;47.072;15.132;2022-10-17T08:26:15;15.10;99.90
20929;DHT22;21895;47.072;15.132;2022-10-17T08:28:45;15.30;99.90
20929;DHT22;21895;47.072;15.132;2022-10-17T08:31:14;15.50;99.90
20929;DHT22;21895;47.072;15.132;2022-10-17T08:33:44;15.70;99.90
20929;DHT22;21895;47.072;15.132;2022-10-17T08:36:13;16.00;99.90
20929;DHT22;21895;47.072;15.132;2022-10-17T08:38:41;16.30;99.90
20929;DHT22;21895;47.072;15.132;2022-10-17T08:43:07;16.40;99.90
20929;DHT22;21895;47.072;15.132;2022-10-17T08:46:04;16.60;99.90
20929;DHT22;21895;47.072;15.132;2022-10-17T08:48:40;16.60;99.90
20929;DHT22;21895;47.072;15.132;2022-10-17T08:51:16;16.70;99.90
20929;DHT22;21895;47.072;15.132;2022-10-17T08:54:12;16.80;99.90
20929;DHT22;21895;47.072;15.132;2022-10-17T08:56:49;17.00;99.90
20929;DHT22;21895;47.072;15.132;2022-10-17T08:59:28;17.20;99.90
20929;DHT22;21895;47.072;15.132;2022-10-17T09:06:50;17.30;99.90
20929;DHT22;21895;47.072;15.132;2022-10-17T09:10:08;17.40;99.90
20929;DHT22;21895;47.072;15.132;2022-10-17T09:21:56;17.80;99.90
20929;DHT22;21895;47.072;15.132;2022-10-17T09:24:43;18.10;99.90
20929;DHT22;21895;47.072;15.132;2022-10-17T09:27:53;18.20;99.90
20929;DHT22;21895;47.072;15.132;2022-10-17T09:31:34;18.50;99.90
20929;DHT22;21895;47.072;15.132;2022-10-17T09:34:09;18.60;99.90
20929;DHT22;21895;47.072;15.132;2022-10-17T09:36:38;18.70;99.90
20929;DHT22;21895;47.072;15.132;2022-10-17T09:39:15;18.70;99.90
20929;DHT22;21895;47.072;15.132;2022-10-17T09:41:49;18.70;99.90
20929;DHT22;21895;47.072;15.132;2022-10-17T09:44:38;18.90;99.90
20929;DHT22;21895;47.072;15.132;2022-10-17T09:47:41;18.90;99.90
20929;DHT22;21895;47.072;15.132;2022-10-17T09:50:32;19.00;99.90
20929;DHT22;21895;47.072;15.132;2022-10-17T09:53:48;19.10;99.90
20929;DHT22;21895;47.072;15.132;2022-10-17T09:56:19;19.10;99.90
20929;DHT22;21895;47.072;15.132;2022-10-17T09:58:48;19.20;99.90
20929;DHT22;21895;47.072;15.132;2022-10-17T10:01:26;19.40;99.90
20929;DHT22;21895;47.072;15.132;2022-10-17T10:04:15;19.50;99.90
20929;DHT22;21895;47.072;15.132;2022-10-17T10:07:05;19.50;99.90
20929;DHT22;21895;47.072;15.132;2022-10-17T10:09:37;19.60;99.90
20929;DHT22;21895;47.072;15.132;2022-10-17T10:12:19;19.70;99.90
20929;DHT22;21895;47.072;15.132;2022-10-17T10:14:48;19.70;99.90
20929;DHT22;21895;47.072;15.132;2022-10-17T10:17:39;19.80;99.90
20929;DHT22;21895;47.072;15.132;2022-10-17T10:20:35;19.80;99.90
20929;DHT22;21895;47.072;15.132;2022-10-17T10:23:20;19.90;99.90
20929;DHT22;21895;47.072;15.132;2022-10-17T10:25:56;20.00;99.90
20929;DHT22;21895;47.072;15.132;2022-10-17T10:28:33;20.00;99.90
20929;DHT22;21895;47.072;15.132;2022-10-17T10:31:06;20.20;99.90
20929;DHT22;21895;47.072;15.132;2022-10-17T10:33:39;20.20;99.90
20929;DHT22;21895;47.072;15.132;2022-10-17T10:36:07;20.10;99.90
20929;DHT22;21895;47.072;15.132;2022-10-17T10:38:38;20.20;99.90
20929;DHT22;21895;47.072;15.132;2022-10-17T10:41:09;20.30;99.90
20929;DHT22;21895;47.072;15.132;2022-10-17T10:43:44;20.30;99.90
20929;DHT22;21895;47.072;15.132;2022-10-17T10:46:20;20.50;99.90
20929;DHT22;21895;47.072;15.132;2022-10-17T10:48:56;20.40;99.90
20929;DHT22;21895;47.072;15.132;2022-10-17T10:51:32;20.40;99.90
20929;DHT22;21895;47.072;15.132;2022-10-17T10:54:10;20.30;99.90
20929;DHT22;21895;47.072;15.132;2022-10-17T10:56:45;20.50;99.90
20929;DHT22;21895;47.072;15.132;2022-10-17T11:00:20;20.40;99.90
20929;DHT22;21895;47.072;15.132;2022-10-17T11:03:15;20.70;99.90
20929;DHT22;21895;47.072;15.132;2022-10-17T11:05:53;20.70;99.90
20929;DHT22;21895;47.072;15.132;2022-10-17T11:08:49;20.70;99.90
20929;DHT22;21895;47.072;15.132;2022-10-17T11:11:41;20.70;99.90
20929;DHT22;21895;47.072;15.132;2022-10-17T11:14:23;20.60;99.90
20929;DHT22;21895;47.072;15.132;2022-10-17T11:17:32;20.60;99.90
20929;DHT22;21895;47.072;15.132;2022-10-17T11:20:59;20.70;99.90
20929;DHT22;21895;47.072;15.132;2022-10-17T11:24:14;20.70;99.90
20929;DHT22;21895;47.072;15.132;2022-10-17T11:27:05;20.90;99.90
20929;DHT22;21895;47.072;15.132;2022-10-17T11:29:36;21.10;99.90
20929;DHT22;21895;47.072;15.132;2022-10-17T11:40:00;21.00;99.90
20929;DHT22;21895;47.072;15.132;2022-10-17T11:42:38;21.00;99.80
20929;DHT22;21895;47.072;15.132;2022-10-17T11:45:16;21.00;99.80
20929;DHT22;21895;47.072;15.132;2022-10-17T11:47:50;20.90;99.90
20929;DHT22;21895;47.072;15.132;2022-10-17T11:50:30;20.90;99.90
20929;DHT22;21895;47.072;15.132;2022-10-17T11:53:52;21.00;99.50
20929;DHT22;21895;47.072;15.132;2022-10-17T12:02:36;20.90;99.70
20929;DHT22;21895;47.072;15.132;2022-10-17T12:08:37;21.00;99.30
20929;DHT22;21895;47.072;15.132;2022-10-17T12:16:41;21.00;99.00
20929;DHT22;21895;47.072;15.132;2022-10-17T12:19:20;20.90;99.30
20929;DHT22;21895;47.072;15.132;2022-10-17T12:24:17;20.90;99.70
20929;DHT22;21895;47.072;15.132;2022-10-17T12:27:10;21.10;99.20
20929;DHT22;21895;47.072;15.132;2022-10-17T12:30:24;21.00;99.80
20929;DHT22;21895;47.072;15.132;2022-10-17T12:33:04;20.90;99.70
20929;DHT22;21895;47.072;15.132;2022-10-17T12:36:52;21.00;99.90
20929;DHT22;21895;47.072;15.132;2022-10-17T12:39:41;21.00;99.40
20929;DHT22;21895;47.072;15.132;2022-10-17T12:42:29;21.00;98.70
20929;DHT22;21895;47.072;15.132;2022-10-17T12:44:57;20.90;99.30
20929;DHT22;21895;47.072;15.132;2022-10-17T12:47:35;20.80;99.80
20929;DHT22;21895;47.072;15.132;2022-10-17T12:50:07;20.70;99.90
20929;DHT22;21895;47.072;15.132;2022-10-17T12:54:14;20.70;99.90
20929;DHT22;21895;47.072;15.132;2022-10-17T12:56:44;20.70;99.90
20929;DHT22;21895;47.072;15.132;2022-10-17T12:59:20;20.80;99.90
20929;DHT22;21895;47.072;15.132;2022-10-17T13:01:52;21.00;99.90
20929;DHT22;21895;47.072;15.132;2022-10-17T13:04:22;20.90;99.90
20929;DHT22;21895;47.072;15.132;2022-10-17T13:06:58;20.90;99.90
20929;DHT22;21895;47.072;15.132;2022-10-17T13:12:13;20.90;99.90
20929;DHT22;21895;47.072;15.132;2022-10-17T13:14:50;21.10;99.90
20929;DHT22;21895;47.072;15.132;2022-10-17T13:17:25;21.10;99.90
20929;DHT22;21895;47.072;15.132;2022-10-17T13:19:55;20.90;99.90
20929;DHT22;21895;47.072;15.132;2022-10-17T13:22:28;20.90;99.90
20929;DHT22;21895;47.072;15.132;2022-10-17T13:25:08;20.80;99.90
20929;DHT22;21895;47.072;15.132;2022-10-17T13:27:39;21.10;99.90
20929;DHT22;21895;47.072;15.132;2022-10-17T13:30:27;20.90;99.90
20929;DHT22;21895;47.072;15.132;2022-10-17T13:32:58;20.70;99.90
20929;DHT22;21895;47.072;15.132;2022-10-17T13:35:32;20.60;99.90
20929;DHT22;21895;47.072;15.132;2022-10-17T13:38:28;20.70;99.90
20929;DHT22;21895;47.072;15.132;2022-10-17T13:40:57;20.80;99.90
20929;DHT22;21895;47.072;15.132;2022-10-17T13:43:49;20.70;99.90
20929;DHT22;21895;47.072;15.132;2022-10-17T13:46:31;20.60;99.90
20929;DHT22;21895;47.072;15.132;2022-10-17T13:49:19;20.50;99.90
20929;DHT22;21895;47.072;15.132;2022-10-17T13:52:17;20.50;99.90
20929;DHT22;21895;47.072;15.132;2022-10-17T13:54:48;20.60;99.90
20929;DHT22;21895;47.072;15.132;2022-10-17T13:57:26;20.60;99.90
20929;DHT22;21895;47.072;15.132;2022-10-17T14:00:18;20.40;99.90
20929;DHT22;21895;47.072;15.132;2022-10-17T14:02:46;20.30;99.90
20929;DHT22;21895;47.072;15.132;2022-10-17T14:05:18;20.30;99.90
20929;DHT22;21895;47.072;15.132;2022-10-17T14:07:59;20.30;99.90
20929;DHT22;21895;47.072;15.132;2022-10-17T14:10:48;20.20;99.90
20929;DHT22;21895;47.072;15.132;2022-10-17T14:13:21;20.20;99.90
20929;DHT22;21895;47.072;15.132;2022-10-17T14:15:52;20.20;99.90
20929;DHT22;21895;47.072;15.132;2022-10-17T14:18:28;20.20;99.90
20929;DHT22;21895;47.072;15.132;2022-10-17T14:21:03;20.30;99.90
20929;DHT22;21895;47.072;15.132;2022-10-17T14:26:04;20.40;99.90
20929;DHT22;21895;47.072;15.132;2022-10-17T14:29:05;20.20;99.90
20929;DHT22;21895;47.072;15.132;2022-10-17T14:31:43;20.10;99.90
20929;DHT22;21895;47.072;15.132;2022-10-17T14:34:21;20.00;99.90
20929;DHT22;21895;47.072;15.132;2022-10-17T14:36:54;20.00;99.90
20929;DHT22;21895;47.072;15.132;2022-10-17T14:39:25;20.00;99.90
20929;DHT22;21895;47.072;15.132;2022-10-17T14:41:52;19.90;99.90
20929;DHT22;21895;47.072;15.132;2022-10-17T14:44:33;19.90;99.90
20929;DHT22;21895;47.072;15.132;2022-10-17T14:47:05;19.80;99.90
20929;DHT22;21895;47.072;15.132;2022-10-17T14:50:22;19.70;99.90
20929;DHT22;21895;47.072;15.132;2022-10-17T14:53:18;19.70;99.90
20929;DHT22;21895;47.072;15.132;2022-10-17T14:56:00;19.60;99.90
20929;DHT22;21895;47.072;15.132;2022-10-17T14:58:31;19.60;99.90
20929;DHT22;21895;47.072;15.132;2022-10-17T15:00:59;19.50;99.90
20929;DHT22;21895;47.072;15.132;2022-10-17T15:03:27;19.50;99.90
20929;DHT22;21895;47.072;15.132;2022-10-17T15:05:54;19.40;99.90
20929;DHT22;21895;47.072;15.132;2022-10-17T15:08:22;19.40;99.90
20929;DHT22;21895;47.072;15.132;2022-10-17T15:10:49;19.30;99.90
20929;DHT22;21895;47.072;15.132;2022-10-17T15:13:16;19.30;99.90
20929;DHT22;21895;47.072;15.132;2022-10-17T15:16:21;19.20;99.90
20929;DHT22;21895;47.072;15.132;2022-10-17T15:18:50;19.10;99.90
20929;DHT22;21895;47.072;15.132;2022-10-17T15:21:19;19.00;99.90
20929;DHT22;21895;47.072;15.132;2022-10-17T15:24:03;19.00;99.90
20929;DHT22;21895;47.072;15.132;2022-10-17T15:26:32;18.90;99.90
20929;DHT22;21895;47.072;15.132;2022-10-17T15:29:00;18.90;99.90
20929;DHT22;21895;47.072;15.132;2022-10-17T15:31:28;18.80;99.90
20929;DHT22;21895;47.072;15.132;2022-10-17T15:33:56;18.70;99.90
20929;DHT22;21895;47.072;15.132;2022-10-17T15:36:35;18.50;99.90
20929;DHT22;21895;47.072;15.132;2022-10-17T15:39:08;18.40;99.90
20929;DHT22;21895;47.072;15.132;2022-10-17T15:41:35;18.30;99.90
20929;DHT22;21895;47.072;15.132;2022-10-17T15:44:02;18.20;99.90
20929;DHT22;21895;47.072;15.132;2022-10-17T15:46:31;18.00;99.90
20929;DHT22;21895;47.072;15.132;2022-10-17T15:49:05;17.90;99.90
20929;DHT22;21895;47.072;15.132;2022-10-17T15:51:36;17.70;99.90
20929;DHT22;21895;47.072;15.132;2022-10-17T15:54:03;17.60;99.90
20929;DHT22;21895;47.072;15.132;2022-10-17T15:56:37;17.50;99.90
20929;DHT22;21895;47.072;15.132;2022-10-17T15:59:17;17.70;99.90
20929;DHT22;21895;47.072;15.132;2022-10-17T16:01:51;17.70;99.90
20929;DHT22;21895;47.072;15.132;2022-10-17T16:04:18;17.60;99.90
20929;DHT22;21895;47.072;15.132;2022-10-17T16:06:44;17.40;99.90
20929;DHT22;21895;47.072;15.132;2022-10-17T16:09:11;17.20;99.90
20929;DHT22;21895;47.072;15.132;2022-10-17T16:11:42;17.00;99.90
20929;DHT22;21895;47.072;15.132;2022-10-17T16:14:14;16.80;99.90
20929;DHT22;21895;47.072;15.132;2022-10-17T16:16:42;16.90;99.90
20929;DHT22;21895;47.072;15.132;2022-10-17T16:19:08;17.00;99.90
20929;DHT22;21895;47.072;15.132;2022-10-17T16:21:37;17.10;99.90
20929;DHT22;21895;47.072;15.132;2022-10-17T16:24:05;17.20;99.90
20929;DHT22;21895;47.072;15.132;2022-10-17T16:26:36;17.10;99.90
20929;DHT22;21895;47.072;15.132;2022-10-17T16:29:03;17.00;99.90
20929;DHT22;21895;47.072;15.132;2022-10-17T16:31:33;16.80;99.90
20929;DHT22;21895;47.072;15.132;2022-10-17T16:34:02;16.60;99.90
20929;DHT22;21895;47.072;15.132;2022-10-17T16:36:29;16.50;99.90
20929;DHT22;21895;47.072;15.132;2022-10-17T16:38:56;16.50;99.90
20929;DHT22;21895;47.072;15.132;2022-10-17T16:41:25;16.60;99.90
20929;DHT22;21895;47.072;15.132;2022-10-17T16:43:55;16.50;99.90
20929;DHT22;21895;47.072;15.132;2022-10-17T16:46:23;16.50;99.90
20929;DHT22;21895;47.072;15.132;2022-10-17T16:48:51;16.50;99.90
20929;DHT22;21895;47.072;15.132;2022-10-17T16:51:19;16.30;99.90
20929;DHT22;21895;47.072;15.132;2022-10-17T16:53:49;16.20;99.90
20929;DHT22;21895;47.072;15.132;2022-10-17T16:56:19;16.20;99.90
20929;DHT22;21895;47.072;15.132;2022-10-17T16:58:48;16.10;99.90
20929;DHT22;21895;47.072;15.132;2022-10-17T17:01:19;16.10;99.90
20929;DHT22;21895;47.072;15.132;2022-10-17T17:03:49;16.10;99.90
20929;DHT22;21895;47.072;15.132;2022-10-17T17:06:22;16.10;99.90
20929;DHT22;21895;47.072;15.132;2022-10-17T17:08:51;16.00;99.90
20929;DHT22;21895;47.072;15.132;2022-10-17T17:11:19;15.90;99.90
20929;DHT22;21895;47.072;15.132;2022-10-17T17:13:47;15.90;99.90
20929;DHT22;21895;47.072;15.132;2022-10-17T17:16:19;16.00;99.90
20929;DHT22;21895;47.072;15.132;2022-10-17T17:18:48;15.90;99.90
20929;DHT22;21895;47.072;15.132;2022-10-17T17:21:19;15.90;99.90
20929;DHT22;21895;47.072;15.132;2022-10-17T17:23:45;15.70;99.90
20929;DHT22;21895;47.072;15.132;2022-10-17T17:26:17;15.60;99.90